createdAt,value
2023-01-23T00:01:12.235Z,90.80
2023-01-23T00:06:07.571Z,91.44
2023-01-23T00:11:00.845Z,91.48
2023-01-23T00:15:55.441Z,91.58
2023-01-23T00:20:48.691Z,91.70
2023-01-23T00:25:42.013Z,91.25
2023-01-23T00:30:35.476Z,90.71
2023-01-23T00:35:35.717Z,90.37
2023-01-23T00:40:29.016Z,89.97
2023-01-23T00:45:22.244Z,89.80
2023-01-23T00:50:15.883Z,89.79
2023-01-23T00:55:11.711Z,89.60
2023-01-23T01:00:06.360Z,89.48
2023-01-23T01:04:59.803Z,89.33
2023-01-23T01:09:53.227Z,89.40
2023-01-23T01:14:47.834Z,89.22
2023-01-23T01:19:41.789Z,88.97
2023-01-23T01:24:35.205Z,88.91
2023-01-23T01:29:28.475Z,89.10
2023-01-23T01:34:23.743Z,89.35
2023-01-23T01:39:17.022Z,89.93
2023-01-23T01:44:15.989Z,89.95
2023-01-23T01:49:12.685Z,90.09
2023-01-23T01:54:13.292Z,90.15
2023-01-23T01:59:07.767Z,90.27
2023-01-23T02:04:02.208Z,90.47
2023-01-23T02:09:03.946Z,90.79
2023-01-23T02:13:59.151Z,91.13
2023-01-23T02:18:57.610Z,90.81
2023-01-23T02:24:03.182Z,90.73
2023-01-23T02:28:59.414Z,90.48
2023-01-23T02:33:58.719Z,89.89
2023-01-23T02:39:04.066Z,90.43
2023-01-23T02:44:02.467Z,90.52
2023-01-23T02:48:56.189Z,90.26
2023-01-23T02:53:51.250Z,90.62
2023-01-23T02:59:02.645Z,90.76
2023-01-23T03:03:57.159Z,90.52
2023-01-23T03:08:50.413Z,91.38
2023-01-23T03:13:43.670Z,91.41
2023-01-23T03:18:52.836Z,91.30
2023-01-23T03:23:48.889Z,90.65
2023-01-23T03:28:59.856Z,90.74
2023-01-23T03:33:53.902Z,90.34
2023-01-23T03:39:02.416Z,90.93
2023-01-23T03:43:57.598Z,91.36
2023-01-23T03:48:52.129Z,91.99
2023-01-23T03:53:45.623Z,92.40
2023-01-23T03:58:40.290Z,92.49
2023-01-23T04:03:33.831Z,93.25
2023-01-23T04:08:27.296Z,93.55
2023-01-23T04:13:21.300Z,93.51
2023-01-23T04:18:16.120Z,93.87
2023-01-23T04:23:09.353Z,94.31
2023-01-23T04:28:03.820Z,94.33
2023-01-23T04:32:57.230Z,94.68
2023-01-23T04:37:51.784Z,94.75
2023-01-23T04:42:45.304Z,94.85
2023-01-23T04:47:53.152Z,95.10
2023-01-23T04:52:46.504Z,95.14
2023-01-23T04:57:41.860Z,94.92
2023-01-23T05:02:47.539Z,95.21
2023-01-23T05:07:41.969Z,95.38
2023-01-23T05:12:39.541Z,95.52
2023-01-23T05:17:34.668Z,95.73
2023-01-23T05:22:28.807Z,95.93
2023-01-23T05:27:22.072Z,96.31
2023-01-23T05:32:16.994Z,96.48
2023-01-23T05:37:11.654Z,96.79
2023-01-23T05:42:07.018Z,97.04
2023-01-23T05:47:28.583Z,97.38
2023-01-23T05:52:27.279Z,97.43
2023-01-23T05:57:21.043Z,97.29
2023-01-23T06:02:32.934Z,97.36
2023-01-23T06:07:50.711Z,97.75
2023-01-23T06:12:44.110Z,97.64
2023-01-23T06:17:37.419Z,97.74
2023-01-23T06:22:31.576Z,97.53
2023-01-23T06:27:33.783Z,97.97
2023-01-23T06:32:30.594Z,97.90
2023-01-23T06:37:24.242Z,97.83
2023-01-23T06:42:17.569Z,98.13
2023-01-23T06:47:16.803Z,97.69
2023-01-23T06:52:12.376Z,97.07
2023-01-23T06:57:05.900Z,96.24
2023-01-23T07:02:00.356Z,96.08
2023-01-23T07:07:07.051Z,96.50
2023-01-23T07:12:00.561Z,96.32
2023-01-23T07:16:56.107Z,96.10
2023-01-23T07:21:51.107Z,96.40
2023-01-23T07:26:45.732Z,96.28
2023-01-23T07:31:38.950Z,96.38
2023-01-23T07:36:32.313Z,95.90
2023-01-23T07:41:25.701Z,95.63
2023-01-23T07:46:22.206Z,96.20
2023-01-23T07:51:18.185Z,95.81
2023-01-23T07:56:11.467Z,95.99
2023-01-23T08:01:09.862Z,96.06
2023-01-23T08:06:04.609Z,96.07
2023-01-23T08:10:57.894Z,95.77
2023-01-23T08:15:53.528Z,96.07
2023-01-23T08:20:54.243Z,96.06
2023-01-23T08:25:55.083Z,94.85
2023-01-23T08:30:48.381Z,95.94
2023-01-23T08:35:41.558Z,95.85
2023-01-23T08:40:34.861Z,95.57
2023-01-23T08:45:29.524Z,94.90
2023-01-23T08:50:24.844Z,94.55
2023-01-23T08:55:18.195Z,94.46
2023-01-23T09:00:12.780Z,94.74
2023-01-23T09:05:08.668Z,94.64
2023-01-23T09:10:01.898Z,94.54
2023-01-23T09:14:55.079Z,94.76
2023-01-23T09:19:48.332Z,94.50
2023-01-23T09:24:42.935Z,94.25
2023-01-23T09:29:36.053Z,94.08
2023-01-23T09:34:29.347Z,93.49
2023-01-23T09:39:22.556Z,92.23
2023-01-23T09:44:21.634Z,92.76
2023-01-23T09:49:22.125Z,91.64
2023-01-23T09:54:26.818Z,91.36
2023-01-23T09:59:29.275Z,91.03
2023-01-23T10:04:23.582Z,90.73
2023-01-23T10:09:36.959Z,89.67
2023-01-23T10:14:50.936Z,89.48
2023-01-23T10:20:01.150Z,88.83
2023-01-23T10:24:56.800Z,88.79
2023-01-23T10:29:57.572Z,88.56
2023-01-23T10:34:57.314Z,88.70
2023-01-23T10:39:55.048Z,88.58
2023-01-23T10:44:48.919Z,88.52
2023-01-23T10:49:45.938Z,88.59
2023-01-23T10:54:47.492Z,88.28
2023-01-23T10:59:51.125Z,88.80
2023-01-23T11:04:48.080Z,88.47
2023-01-23T11:09:49.967Z,88.81
2023-01-23T11:14:43.078Z,88.74
2023-01-23T11:19:38.640Z,88.68
2023-01-23T11:24:41.024Z,89.22
2023-01-23T11:29:55.012Z,89.06
2023-01-23T11:34:53.205Z,89.68
2023-01-23T11:39:55.969Z,89.75
2023-01-23T11:44:52.764Z,89.97
2023-01-23T11:50:03.569Z,89.91
2023-01-23T11:55:15.024Z,89.55
2023-01-23T12:00:23.364Z,89.86
2023-01-23T12:05:48.354Z,89.65
2023-01-23T12:10:54.598Z,89.41
2023-01-23T12:16:01.741Z,89.77
2023-01-23T12:21:04.466Z,89.50
2023-01-23T12:26:08.937Z,89.41
2023-01-23T12:31:14.767Z,89.07
2023-01-23T12:36:21.934Z,88.76
2023-01-23T12:41:23.930Z,88.90
2023-01-23T12:46:21.003Z,89.10
2023-01-23T12:51:19.786Z,89.24
2023-01-23T12:56:22.289Z,88.77
2023-01-23T13:01:35.914Z,89.22
2023-01-23T13:06:47.273Z,89.45
2023-01-23T13:11:47.813Z,89.12
2023-01-23T13:16:50.018Z,89.97
2023-01-23T13:22:04.910Z,89.30
2023-01-23T13:26:59.530Z,89.38
2023-01-23T13:32:24.362Z,88.88
2023-01-23T13:37:51.451Z,89.03
2023-01-23T13:42:46.254Z,89.40
2023-01-23T14:25:17.697Z,90.66
2023-01-23T14:30:19.310Z,90.36
2023-01-23T14:35:21.245Z,89.92
2023-01-23T14:40:26.580Z,90.22
2023-01-23T14:45:22.606Z,90.29
2023-01-23T14:50:20.847Z,90.88
2023-01-23T14:55:29.868Z,90.52
2023-01-23T15:00:29.908Z,90.04
2023-01-23T15:05:27.032Z,89.99
2023-01-23T15:10:24.343Z,89.85
2023-01-23T15:15:21.735Z,89.53
2023-01-23T15:20:38.797Z,90.31
2023-01-23T15:25:37.841Z,90.05
2023-01-23T15:30:38.347Z,89.91
2023-01-23T15:35:34.506Z,89.76
2023-01-23T15:40:29.766Z,89.64
2023-01-23T15:45:23.334Z,89.60
2023-01-23T15:50:17.453Z,88.91
2023-01-23T15:55:13.682Z,89.00
2023-01-23T16:00:16.072Z,89.38
2023-01-23T16:05:12.701Z,88.91
2023-01-23T16:10:19.991Z,89.06
2023-01-23T16:15:26.300Z,89.17
2023-01-23T16:20:27.691Z,89.21
2023-01-23T16:25:41.982Z,89.28
2023-01-23T16:30:37.985Z,89.19
2023-01-23T16:35:33.992Z,88.71
2023-01-23T16:40:29.067Z,88.87
2023-01-23T16:45:25.243Z,88.72
2023-01-23T16:50:24.126Z,89.07
2023-01-23T16:55:23.112Z,88.94
2023-01-23T17:00:34.104Z,89.10
2023-01-23T17:05:30.411Z,88.86
2023-01-23T17:10:37.833Z,89.54
2023-01-23T17:15:38.716Z,89.17
2023-01-23T17:20:33.898Z,89.24
2023-01-23T17:25:44.978Z,88.75
2023-01-23T17:30:48.632Z,88.71
2023-01-23T17:35:46.209Z,89.25
2023-01-23T17:40:40.733Z,88.42
2023-01-23T17:45:34.811Z,88.70
2023-01-23T17:50:28.459Z,88.15
2023-01-23T17:55:25.644Z,88.22
2023-01-23T18:00:21.092Z,88.09
2023-01-23T18:05:20.766Z,87.97
2023-01-23T18:10:15.427Z,87.31
2023-01-23T18:15:16.689Z,87.21
2023-01-23T18:20:19.325Z,87.27
2023-01-23T18:25:15.916Z,86.33
2023-01-23T18:30:23.089Z,86.30
2023-01-23T18:35:30.610Z,86.05
2023-01-23T18:40:31.152Z,85.93
2023-01-23T18:45:28.114Z,85.76
2023-01-23T18:50:29.134Z,86.00
2023-01-23T18:55:29.952Z,85.92
2023-01-23T19:00:33.351Z,86.09
2023-01-23T19:05:32.960Z,85.93
2023-01-23T19:10:32.502Z,86.13
2023-01-23T19:15:34.869Z,86.29
2023-01-23T19:20:34.871Z,86.07
2023-01-23T19:25:31.644Z,86.32
2023-01-23T19:30:29.563Z,86.10
2023-01-23T19:35:25.946Z,86.29
2023-01-23T19:40:21.098Z,86.48
2023-01-23T19:45:18.156Z,86.79
2023-01-23T19:50:19.444Z,87.17
2023-01-23T19:55:25.041Z,87.23
2023-01-23T20:00:19.766Z,87.16
2023-01-23T20:05:13.504Z,87.40
2023-01-23T20:10:08.566Z,88.23
2023-01-23T20:15:03.267Z,88.25
2023-01-23T20:19:57.237Z,88.14
2023-01-23T20:24:51.589Z,88.90
2023-01-23T20:29:45.441Z,89.23
2023-01-23T20:34:40.141Z,89.23
2023-01-23T20:39:33.364Z,89.53
2023-01-23T20:44:29.649Z,90.25
2023-01-23T20:49:27.962Z,90.56
2023-01-23T20:54:22.619Z,91.02
2023-01-23T20:59:24.102Z,91.09
2023-01-23T21:04:17.426Z,91.37
2023-01-23T21:09:10.627Z,91.34
2023-01-23T21:14:05.434Z,91.39
2023-01-23T21:18:58.666Z,91.86
2023-01-23T21:23:52.550Z,91.35
2023-01-23T21:28:48.536Z,91.43
2023-01-23T21:33:44.954Z,91.35
2023-01-23T21:38:38.367Z,90.80
2023-01-23T21:43:32.330Z,91.12
2023-01-23T21:48:28.829Z,90.81
2023-01-23T21:53:23.517Z,90.56
2023-01-23T21:58:16.810Z,89.90
2023-01-23T22:03:10.069Z,90.15
2023-01-23T22:08:03.351Z,89.71
2023-01-23T22:12:58.088Z,88.96
2023-01-23T22:17:51.645Z,88.79
2023-01-23T22:22:45.012Z,88.79
2023-01-23T22:27:38.237Z,88.11
2023-01-23T22:32:33.888Z,88.17
2023-01-23T22:37:27.181Z,88.24
2023-01-23T22:42:21.128Z,87.74
2023-01-23T22:47:14.502Z,87.29
2023-01-23T22:52:09.440Z,87.41
2023-01-23T22:57:02.847Z,86.31
2023-01-23T23:01:56.101Z,85.59
2023-01-23T23:06:51.487Z,85.59
2023-01-23T23:11:49.038Z,84.93
2023-01-23T23:16:45.495Z,83.75
2023-01-23T23:21:39.171Z,83.55
2023-01-23T23:26:33.178Z,83.49
2023-01-23T23:31:28.136Z,82.91
2023-01-23T23:36:21.451Z,82.92
2023-01-23T23:41:16.060Z,81.32
2023-01-23T23:46:11.193Z,81.06
2023-01-23T23:51:07.792Z,80.99
2023-01-23T23:56:00.968Z,80.71
